Latest Coastal Weather Observations for Cape Leeuwin

IDW60701

Issued at 12:35 am WST Friday 31 October 2014 (issued every 10 minutes, with the page automatically refreshed every 10 minutes)

About coastal observations | Map of coastal stations | Coastal observations for WA | Marine services | Other Formats
Station Details ID: 009518 Name: CAPE LEEUWIN Lat: -34.37 Lon: 115.14 Height: 13.0 m
Data from the previous 72 hours. | See also: Recent months at Cape Leeuwin
Date/Time
WST
Temp

°C
Wind Pressure Rain
since 9am
mm
Weather Cloud Vis
km
Sea
Height
m
Swell
Dir
 
Speed
knots
Gust
knots
hPa Trend Height
m
Period
s
Dir
31/12:30am 14.9 SSW 24 29 1014.0 - 1.2 - - - - - - -
31/12:00am 15.4 SW 23 29 1013.8 - 1.2 - - - - - - -
 
Date/Time
WST
Temp

°C
Wind Pressure Rain
since 9am
mm
Weather Cloud Vis
km
Sea
Height
m
Swell
Dir
 
Speed
knots
Gust
knots
hPa Trend Height
m
Period
s
Dir
30/11:30pm 15.6 SW 25 30 1013.7 - 1.2 - - - - - - -
30/11:00pm 15.6 SW 26 33 1013.5 - 1.2 - - - - - - -
30/10:30pm 15.5 SW 24 32 1013.3 - 1.2 - - - - - - -
30/10:00pm 16.0 WSW 25 31 1013.0 - 1.2 - - - - - - -
30/09:46pm 15.7 SW 29 34 1013.0 - 0.8 - - - - - - -
30/09:44pm 16.7 W 22 32 1012.7 - 0.6 - - - - - - -
30/09:30pm 16.6 W 25 31 1012.7 - 0.0 - - - - - - -
30/09:00pm 17.8 W 22 27 1012.7 - 0.0 - - - - - - -
30/08:30pm 17.6 W 23 27 1012.5 - 0.0 - - - - - - -
30/08:03pm 17.8 WNW 25 36 1012.4 - 0.0 - - - - - - -
30/08:00pm 18.0 WNW 25 30 1012.4 - 0.0 - - - - - - -
30/07:30pm 17.9 W 22 26 1012.5 - 0.0 - - - - - - -
30/07:00pm 17.7 W 23 25 1012.4 - 0.0 - - - - - - -
30/06:30pm 17.8 W 26 31 1012.2 - 0.0 - - - - - - -
30/06:00pm 17.9 WNW 24 28 1012.1 - 0.0 - - - - - - -
30/05:30pm 18.0 W 23 27 1011.9 - 0.0 - - - - - - -
30/05:00pm 18.4 WNW 24 27 1011.7 - 0.0 - - - - - - -
30/04:30pm 18.1 WNW 24 30 1011.7 - 0.0 - - - - - - -
30/04:00pm 17.0 WNW 24 30 1011.7 - 0.0 - - - - - - -
30/03:30pm 18.1 NW 21 25 1011.8 - 0.0 - - - - - - -
30/03:00pm 17.3 WNW 28 33 1011.9 - 0.0 - - - - - - -
30/02:30pm 17.9 WNW 22 26 1012.1 - 0.0 - - - - - - -
30/02:00pm 18.6 WNW 19 23 1012.4 - 0.0 - - - - - - -
30/01:30pm 18.5 WNW 20 23 1012.7 - 0.0 - - - - - - -
30/01:00pm 17.7 WNW 21 25 1012.8 - 0.0 - - - - - - -
30/12:30pm 17.7 W 19 22 1012.8 - 0.0 - - - - - - -
30/12:00pm 18.5 WNW 17 19 1012.9 - 0.0 - - - - - - -
30/11:30am 18.2 W 17 21 1013.2 - 0.0 - - - - - - -
30/11:00am 17.6 WNW 14 18 1013.3 - 0.0 - - - - - - -
30/10:30am 18.0 WNW 11 14 1013.7 - 0.0 - - - - - - -
30/10:00am 17.7 WNW 12 15 1013.9 - 0.0 - - - - - - -
30/09:30am 17.5 NW 11 13 1014.2 - 0.0 - - - - - - -
30/09:00am 17.3 WNW 13 15 1014.1 - 0.0 - - - - - - -
30/08:30am 17.2 W 12 15 1014.1 - 0.0 - - - - - - -
30/08:00am 16.8 NW 8 10 1014.3 - 0.0 - - - - - - -
30/07:30am 16.7 WNW 5 7 1014.1 - 0.0 - - - - - - -
30/07:00am 16.5 WNW 7 10 1014.3 - 0.0 - - - - - - -
30/06:30am 16.2 W 8 10 1014.5 - 0.0 - - - - - - -
30/06:00am 16.2 WNW 7 9 1014.5 - 0.0 - - - - - - -
30/05:30am 15.9 W 6 8 1014.5 - 0.0 - - - - - - -
30/05:00am 15.7 WSW 5 7 1014.4 - 0.0 - - - - - - -
30/04:30am 15.7 WSW 8 11 1014.5 - 0.0 - - - - - - -
30/04:00am 15.6 W 5 10 1014.6 - 0.0 - - - - - - -
30/03:30am 15.6 SW 9 12 1014.6 - 0.0 - - - - - - -
30/03:00am 15.4 SSW 5 8 1014.6 - 0.0 - - - - - - -
30/02:30am 15.1 S 6 8 1014.6 - 0.0 - - - - - - -
30/02:00am 15.5 SW 10 13 1014.6 - 0.0 - - - - - - -
30/01:30am 15.0 S 7 10 1014.6 - 0.0 - - - - - - -
30/01:00am 15.2 S 9 11 1014.9 - 0.0 - - - - - - -
30/12:30am 15.2 S 9 12 1015.3 - 0.0 - - - - - - -
30/12:00am 15.1 S 9 11 1015.4 - 0.0 - - - - - - -
 
Date/Time
WST
Temp

°C
Wind Pressure Rain
since 9am
mm
Weather Cloud Vis
km
Sea
Height
m
Swell
Dir
 
Speed
knots
Gust
knots
hPa Trend Height
m
Period
s
Dir
29/11:30pm 15.1 S 8 11 1015.5 - 0.0 - - - - - - -
29/11:00pm 15.6 S 10 14 1015.9 - 0.0 - - - - - - -
29/10:30pm 15.8 SSW 12 14 1016.0 - 0.0 - - - - - - -
29/10:00pm 16.0 SSW 11 15 1016.3 - 0.0 - - - - - - -
29/09:30pm 16.0 S 11 15 1016.3 - 0.0 - - - - - - -
29/09:00pm 16.1 S 10 14 1016.4 - 0.0 - - - - - - -
29/08:30pm 16.1 SSW 11 15 1016.3 - 0.0 - - - - - - -
29/08:00pm 16.1 SSW 11 13 1016.0 - 0.0 - - - - - - -
29/07:30pm 16.3 S 9 12 1015.8 - 0.0 - - - - - - -
29/07:00pm 16.6 S 9 13 1015.6 - 0.0 - - - - - - -
29/06:30pm 16.5 S 10 13 1015.4 - 0.0 - - - - - - -
29/06:00pm 16.5 S 9 11 1015.1 - 0.0 - - - - - - -
29/05:30pm 16.9 SSE 10 12 1015.1 - 0.0 - - - - - - -
29/05:00pm 17.8 SSE 10 13 1015.0 - 0.0 - - - - - - -
29/04:30pm 17.9 S 10 14 1015.3 - 0.0 - - - - - - -
29/04:00pm 17.8 SSE 13 17 1015.2 - 0.0 - - - - - - -
29/03:30pm 18.9 SSE 11 15 1015.2 - 0.0 - - - - - - -
29/03:00pm 19.1 S 9 14 1015.4 - 0.0 - - - - - - -
29/02:30pm 19.7 S 12 16 1015.7 - 0.0 - - - - - - -
29/02:00pm 19.1 S 11 15 1016.0 - 0.0 - - - - - - -
29/01:30pm 19.5 S 11 15 1016.0 - 0.0 - - - - - - -
29/01:00pm 19.5 SSE 11 16 1016.1 - 0.0 - - - - - - -
29/12:30pm 19.2 SSE 12 15 1016.4 - 0.0 - - - - - - -
29/12:00pm 19.5 SSE 11 15 1016.7 - 0.0 - - - - - - -
29/11:30am 18.4 SSE 11 16 1017.0 - 0.0 - - - - - - -
29/11:00am 18.5 SSE 11 15 1017.2 - 0.0 - - - - - - -
29/10:30am 18.6 SSE 10 13 1017.5 - 0.0 - - - - - - -
29/10:00am 18.3 S 11 16 1017.9 - 0.0 - - - - - - -
29/09:30am 18.1 S 11 15 1017.9 - 0.0 - - - - - - -
29/09:00am 17.1 S 9 13 1017.8 - 0.0 - - - - - - -
29/08:30am 16.8 S 10 13 1017.6 - 0.0 - - - - - - -
29/08:00am 16.8 SSE 9 13 1017.3 - 0.0 - - - - - - -
29/07:30am 16.5 SE 10 13 1017.2 - 0.0 - - - - - - -
29/07:00am 16.1 S 9 13 1017.1 - 0.0 - - - - - - -
29/06:30am 15.9 SSE 9 14 1017.0 - 0.0 - - - - - - -
29/06:00am 15.6 SSE 10 16 1016.6 - 0.0 - - - - - - -
29/05:30am 15.5 SE 10 14 1016.4 - 0.0 - - - - - - -
29/05:00am 15.4 SSE 11 15 1016.3 - 0.0 - - - - - - -
29/04:30am 15.1 SSE 10 15 1016.1 - 0.0 - - - - - - -
29/04:00am 15.2 SE 12 15 1016.0 - 0.0 - - - - - - -
29/03:30am 15.2 SSE 13 16 1016.2 - 0.0 - - - - - - -
29/03:00am 15.5 SSE 14 17 1016.4 - 0.0 - - - - - - -
29/02:30am 15.6 SE 13 17 1016.4 - 0.0 - - - - - - -
29/02:00am 15.3 SE 13 16 1016.4 - 0.0 - - - - - - -
29/01:30am 15.7 SE 15 18 1016.4 - 0.0 - - - - - - -
29/01:00am 15.6 SSE 14 17 1016.6 - 0.0 - - - - - - -
29/12:30am 15.7 SSE 14 18 1016.6 - 0.0 - - - - - - -
29/12:00am 15.7 S 14 18 1016.8 - 0.0 - - - - - - -
 
Date/Time
WST
Temp

°C
Wind Pressure Rain
since 9am
mm
Weather Cloud Vis
km
Sea
Height
m
Swell
Dir
 
Speed
knots
Gust
knots
hPa Trend Height
m
Period
s
Dir
28/11:30pm 16.3 SSE 15 19 1016.9 - 0.0 - - - - - - -
28/11:00pm 16.0 SSE 14 18 1017.3 - 0.0 - - - - - - -
28/10:30pm 16.1 SSE 14 19 1017.3 - 0.0 - - - - - - -
28/10:00pm 16.3 SSE 13 17 1017.6 - 0.0 - - - - - - -
28/09:30pm 16.3 SSE 13 17 1017.5 - 0.0 - - - - - - -
28/09:00pm 16.4 SSE 13 18 1017.6 - 0.0 - - - - - - -
28/08:30pm 16.4 SSE 13 17 1017.5 - 0.0 - - - - - - -
28/08:00pm 16.5 SSE 13 16 1017.5 - 0.0 - - - - - - -
28/07:30pm 16.3 SSE 13 16 1017.1 - 0.0 - - - - - - -
28/07:00pm 16.5 SSE 12 16 1016.8 - 0.0 - - - - - - -
28/06:30pm 16.8 SSE 13 17 1016.8 - 0.0 - - - - - - -
28/06:00pm 17.4 SSE 13 16 1016.8 - 0.0 - - - - - - -
28/05:30pm 17.4 SSE 12 16 1016.6 - 0.0 - - - - - - -
28/05:00pm 18.0 SSE 12 15 1016.4 - 0.0 - - - - - - -
28/04:30pm 18.6 SSE 11 15 1016.4 - 0.0 - - - - - - -
28/04:00pm 18.9 S 10 13 1016.4 - 0.0 - - - - - - -
28/03:30pm 19.4 S 10 13 1016.5 - 0.0 - - - - - - -
28/03:00pm 19.5 S 9 13 1016.7 - 0.0 - - - - - - -
28/02:30pm 20.0 S 9 13 1017.0 - 0.0 - - - - - - -
28/02:00pm 20.0 S 9 12 1017.2 - 0.0 - - - - - - -
28/01:30pm 19.8 S 10 14 1017.4 - 0.0 - - - - - - -
28/01:00pm 20.4 SSE 9 13 1017.7 - 0.0 - - - - - - -
28/12:30pm 19.5 SSE 10 13 1017.9 - 0.0 - - - - - - -
28/12:00pm 19.7 SSE 9 11 1018.1 - 0.0 - - - - - - -
28/11:30am 18.7 ESE 8 9 1018.4 - 0.0 - - - - - - -
28/11:00am 19.0 E 9 11 1018.7 - 0.0 - - - - - - -
28/10:30am 18.7 E 10 12 1019.2 - 0.0 - - - - - - -
28/10:00am 17.7 E 11 13 1019.4 - 0.0 - - - - - - -
28/09:30am 16.8 E 12 15 1019.4 - 0.0 - - - - - - -
28/09:00am 16.6 E 13 17 1019.5 - 0.0 - - - - - - -
28/08:30am 15.6 E 13 17 1019.4 - 0.0 - - - - - - -
28/08:00am 15.9 ENE 14 17 1019.6 - 0.0 - - - - - - -
28/07:30am 15.3 ENE 12 16 1019.7 - 0.0 - - - - - - -
28/07:00am 14.5 ENE 11 15 1019.8 - 0.0 - - - - - - -
28/06:30am 13.8 NE 12 15 1019.8 - 0.0 - - - - - - -
28/06:00am 13.0 NE 12 15 1019.8 - 0.0 - - - - - - -
28/05:30am 12.7 NE 13 16 1019.7 - 0.0 - - - - - - -
28/05:00am 12.5 NE 11 13 1019.9 - 0.0 - - - - - - -
28/04:30am 13.2 NE 10 12 1020.0 - 0.0 - - - - - - -
28/04:00am 13.8 NE 7 10 1020.2 - 0.0 - - - - - - -
28/03:30am 15.0 E 7 11 1020.0 - 0.0 - - - - - - -
28/03:00am 15.3 ESE 11 14 1020.0 - 0.0 - - - - - - -
28/02:30am 15.3 ESE 10 13 1020.3 - 0.0 - - - - - - -
28/02:00am 15.3 ESE 10 13 1020.4 - 0.0 - - - - - - -
28/01:30am 15.3 ESE 10 13 1020.7 - 0.0 - - - - - - -
28/01:00am 15.4 SE 11 15 1020.9 - 0.0 - - - - - - -

Other Formats:

Comma delimited format used in spreadsheet applications
http://www.bom.gov.au/fwo/IDW60701/IDW60701.94601.axf

JavaScript Object Notation format (JSON) in row-major order
http://www.bom.gov.au/fwo/IDW60701/IDW60701.94601.json